createdAt,value
2019-03-31T00:01:08.170Z,18.77
2019-03-31T00:03:27.204Z,16.93
2019-03-31T00:05:54.864Z,15.00
2019-03-31T00:08:22.310Z,14.67
2019-03-31T00:10:49.641Z,17.57
2019-03-31T00:13:17.077Z,14.93
2019-03-31T00:15:44.611Z,15.90
2019-03-31T00:18:11.949Z,17.40
2019-03-31T00:20:39.502Z,14.77
2019-03-31T00:23:06.856Z,14.90
2019-03-31T00:25:34.183Z,14.33
2019-03-31T00:28:01.758Z,14.07
2019-03-31T00:30:29.093Z,15.10
2019-03-31T00:32:56.657Z,15.53
2019-03-31T00:35:25.363Z,14.70
2019-03-31T00:37:52.950Z,15.00
2019-03-31T00:40:20.477Z,17.47
2019-03-31T00:42:47.802Z,15.33
2019-03-31T00:45:15.165Z,16.23
2019-03-31T00:47:43.041Z,15.40
2019-03-31T00:50:10.356Z,15.77
2019-03-31T00:52:37.987Z,16.47
2019-03-31T00:55:05.606Z,19.77
2019-03-31T00:57:32.920Z,15.97
2019-03-31T01:00:00.381Z,15.83
2019-03-31T01:02:29.604Z,17.77
2019-03-31T01:04:57.040Z,16.70
2019-03-31T01:07:25.726Z,15.77
2019-03-31T01:09:54.562Z,14.33
2019-03-31T01:12:23.518Z,16.47
2019-03-31T01:14:50.835Z,18.47
2019-03-31T01:17:19.105Z,16.63
2019-03-31T01:19:46.920Z,19.93
2019-03-31T01:22:14.237Z,15.77
2019-03-31T01:24:41.858Z,18.10
2019-03-31T01:27:10.051Z,15.13
2019-03-31T01:29:37.564Z,15.07
2019-03-31T01:32:04.893Z,16.03
2019-03-31T01:34:32.473Z,15.47
2019-03-31T01:36:59.845Z,13.63
2019-03-31T01:39:28.392Z,15.57
2019-03-31T01:41:56.061Z,15.40
2019-03-31T01:44:23.508Z,16.67
2019-03-31T01:46:50.968Z,15.40
2019-03-31T01:49:18.848Z,16.20
2019-03-31T01:51:46.168Z,16.67
2019-03-31T01:54:13.755Z,17.80
2019-03-31T01:56:41.103Z,15.43
2019-03-31T01:59:10.293Z,17.60
2019-03-31T02:01:37.614Z,14.87
2019-03-31T02:04:05.279Z,15.70
2019-03-31T02:06:33.295Z,18.80
2019-03-31T02:09:00.600Z,19.13
2019-03-31T02:11:28.208Z,18.20
2019-03-31T02:13:55.849Z,16.43
2019-03-31T02:16:23.177Z,20.40
2019-03-31T02:18:50.557Z,17.00
2019-03-31T02:21:18.218Z,20.40
2019-03-31T02:23:45.536Z,18.33
2019-03-31T02:26:13.137Z,17.43
2019-03-31T02:28:40.574Z,15.33
2019-03-31T02:31:08.297Z,19.80
2019-03-31T02:33:35.616Z,19.53
2019-03-31T02:36:03.165Z,18.57
2019-03-31T02:38:30.479Z,59.40
2019-03-31T02:40:57.810Z,52.83
2019-03-31T02:43:25.345Z,36.07
2019-03-31T02:45:52.781Z,32.17
2019-03-31T02:48:20.104Z,36.93
2019-03-31T02:50:48.578Z,37.97
2019-03-31T02:53:16.569Z,41.07
2019-03-31T02:55:44.455Z,39.57
2019-03-31T02:58:12.922Z,28.90
2019-03-31T03:00:40.427Z,38.13
2019-03-31T03:03:07.722Z,31.70
2019-03-31T03:05:35.493Z,24.83
2019-03-31T03:08:03.075Z,21.67
2019-03-31T03:10:31.841Z,18.27
2019-03-31T03:12:59.425Z,19.53
2019-03-31T03:15:27.482Z,16.77
2019-03-31T03:17:55.215Z,16.57
2019-03-31T03:20:22.546Z,16.77
2019-03-31T03:22:50.145Z,23.90
2019-03-31T03:25:18.636Z,24.20
2019-03-31T03:27:45.949Z,18.43
2019-03-31T03:30:13.275Z,18.20
2019-03-31T03:33:10.999Z,19.53
2019-03-31T03:35:09.734Z,19.40
2019-03-31T03:37:37.041Z,18.30
2019-03-31T03:40:06.041Z,21.50
2019-03-31T03:42:33.595Z,20.17
2019-03-31T03:45:01.157Z,17.73
2019-03-31T03:47:28.483Z,16.83
2019-03-31T03:49:55.810Z,19.10
2019-03-31T03:52:23.312Z,16.70
2019-03-31T03:54:50.623Z,19.73
2019-03-31T03:57:18.162Z,19.17
2019-03-31T03:59:46.272Z,18.63
2019-03-31T04:02:14.167Z,20.80
2019-03-31T04:04:41.456Z,21.03
2019-03-31T04:07:09.058Z,20.53
2019-03-31T04:09:36.381Z,21.57
2019-03-31T04:12:04.073Z,20.73
2019-03-31T04:14:31.686Z,24.47
2019-03-31T04:16:59.003Z,21.97
2019-03-31T04:19:26.313Z,22.93
2019-03-31T04:21:54.651Z,21.57
2019-03-31T04:24:22.268Z,23.53
2019-03-31T04:26:49.581Z,24.27
2019-03-31T04:29:17.410Z,22.70
2019-03-31T04:31:44.798Z,25.87
2019-03-31T04:34:12.309Z,25.90
2019-03-31T04:36:39.767Z,23.57
2019-03-31T04:39:07.534Z,24.37
2019-03-31T04:41:35.298Z,21.27
2019-03-31T04:44:02.747Z,20.77
2019-03-31T04:46:30.066Z,23.03
2019-03-31T04:48:57.501Z,18.30
2019-03-31T04:51:25.118Z,18.00
2019-03-31T04:53:52.501Z,21.90
2019-03-31T04:56:20.020Z,20.13
2019-03-31T04:58:47.340Z,21.20
2019-03-31T05:01:14.805Z,19.77
2019-03-31T05:03:42.372Z,22.13
2019-03-31T05:06:09.688Z,21.40
2019-03-31T05:08:37.492Z,25.43
2019-03-31T05:11:05.156Z,24.87
2019-03-31T05:13:32.476Z,23.47
2019-03-31T05:15:59.856Z,23.20
2019-03-31T05:18:27.936Z,25.97
2019-03-31T05:20:55.629Z,20.77
2019-03-31T05:23:23.015Z,85.17
2019-03-31T05:25:50.500Z,56.47
2019-03-31T05:28:17.839Z,36.60
2019-03-31T05:30:45.140Z,37.60
2019-03-31T05:33:12.878Z,40.03
2019-03-31T05:35:40.208Z,39.80
2019-03-31T05:38:07.769Z,41.87
2019-03-31T05:40:35.233Z,45.53
2019-03-31T05:43:02.897Z,39.77
2019-03-31T05:45:30.205Z,32.27
2019-03-31T05:47:57.554Z,28.60
2019-03-31T05:50:25.066Z,27.90
2019-03-31T05:52:52.372Z,38.00
2019-03-31T05:55:19.749Z,44.30
2019-03-31T05:57:47.130Z,43.97
2019-03-31T06:00:15.993Z,49.23
2019-03-31T06:02:43.384Z,46.57
2019-03-31T06:05:10.808Z,60.00
2019-03-31T06:07:38.125Z,49.80
2019-03-31T06:10:06.109Z,47.43
2019-03-31T06:12:33.792Z,46.07
2019-03-31T06:15:01.197Z,50.10
2019-03-31T06:17:28.708Z,47.17
2019-03-31T06:19:56.152Z,49.27
2019-03-31T06:22:24.029Z,48.13
2019-03-31T06:24:51.333Z,52.80
2019-03-31T06:27:18.727Z,50.87
2019-03-31T06:29:47.208Z,50.67
2019-03-31T06:32:14.894Z,53.87
2019-03-31T06:34:47.685Z,50.00
2019-03-31T06:37:11.256Z,50.40
2019-03-31T06:39:39.901Z,52.17
2019-03-31T06:42:07.281Z,51.03
2019-03-31T06:44:38.009Z,51.43
2019-03-31T06:47:04.742Z,63.83
2019-03-31T06:49:32.053Z,53.33
2019-03-31T06:51:59.632Z,54.57
2019-03-31T06:54:27.290Z,50.47
2019-03-31T06:56:54.601Z,51.13
2019-03-31T06:59:21.989Z,54.07
2019-03-31T07:01:49.469Z,52.40
2019-03-31T07:04:16.926Z,53.83
2019-03-31T07:06:44.360Z,49.20
2019-03-31T07:09:12.080Z,50.40
2019-03-31T07:11:39.392Z,46.13
2019-03-31T07:14:06.953Z,45.73
2019-03-31T07:16:34.280Z,48.67
2019-03-31T07:19:01.617Z,45.53
2019-03-31T07:21:29.107Z,45.63
2019-03-31T07:23:56.984Z,43.13
2019-03-31T07:26:24.375Z,43.87
2019-03-31T07:28:51.926Z,49.77
2019-03-31T07:31:19.253Z,43.77
2019-03-31T07:33:47.131Z,47.53
2019-03-31T07:36:14.667Z,41.20
2019-03-31T07:38:42.010Z,47.67
2019-03-31T07:41:12.843Z,44.50
2019-03-31T07:43:39.568Z,42.77
2019-03-31T07:46:06.937Z,39.87
2019-03-31T07:48:34.240Z,44.43
2019-03-31T07:51:01.841Z,43.03
2019-03-31T07:53:29.162Z,46.23
2019-03-31T07:55:56.478Z,43.30
2019-03-31T07:58:24.260Z,40.43
2019-03-31T08:00:51.748Z,39.10
2019-03-31T08:03:19.330Z,38.10
2019-03-31T08:05:47.386Z,38.77
2019-03-31T08:08:15.355Z,47.60
2019-03-31T08:10:42.657Z,41.30
2019-03-31T08:13:09.984Z,45.90
2019-03-31T08:15:37.424Z,46.00
2019-03-31T08:18:04.896Z,77.83
2019-03-31T08:20:32.332Z,39.87
2019-03-31T08:22:59.782Z,38.47
2019-03-31T08:25:27.267Z,40.17
2019-03-31T08:27:55.329Z,38.37
2019-03-31T08:30:22.640Z,37.27
2019-03-31T08:32:50.230Z,38.93
2019-03-31T08:35:17.698Z,38.57
2019-03-31T08:37:45.565Z,38.83
2019-03-31T08:40:13.828Z,46.33
2019-03-31T08:42:41.146Z,41.77
2019-03-31T08:45:08.738Z,43.90
2019-03-31T08:47:36.588Z,43.33
2019-03-31T08:50:05.282Z,34.87
2019-03-31T08:52:32.589Z,36.37
2019-03-31T08:54:59.993Z,36.30
2019-03-31T08:57:27.453Z,35.27
2019-03-31T08:59:54.786Z,34.10
2019-03-31T09:02:23.866Z,32.63
2019-03-31T09:04:51.216Z,35.50
2019-03-31T09:07:18.600Z,32.77
2019-03-31T09:09:46.196Z,29.13
2019-03-31T09:12:14.255Z,31.33
2019-03-31T09:14:41.577Z,26.80
2019-03-31T09:17:08.878Z,28.00
2019-03-31T09:19:36.801Z,27.40
2019-03-31T09:22:04.278Z,26.97
2019-03-31T09:24:31.928Z,28.13
2019-03-31T09:26:59.256Z,32.23
2019-03-31T09:29:26.841Z,40.07
2019-03-31T09:31:54.161Z,31.23
2019-03-31T09:34:21.759Z,30.13
2019-03-31T09:36:49.149Z,27.33
2019-03-31T09:39:17.073Z,26.10
2019-03-31T09:41:44.727Z,28.77
2019-03-31T09:44:12.046Z,24.20
2019-03-31T09:46:39.364Z,20.77
2019-03-31T09:49:06.882Z,20.10
2019-03-31T09:51:34.354Z,22.00
2019-03-31T09:54:01.677Z,22.60
2019-03-31T09:56:29.101Z,20.50
2019-03-31T09:58:56.487Z,21.80
2019-03-31T10:01:24.160Z,21.17
2019-03-31T10:03:51.622Z,21.10
2019-03-31T10:06:29.575Z,19.13
2019-03-31T10:08:48.572Z,17.90
2019-03-31T10:11:15.898Z,18.87
2019-03-31T10:13:43.207Z,20.70
2019-03-31T10:16:10.944Z,16.00
2019-03-31T10:18:38.396Z,21.93
2019-03-31T10:21:06.881Z,16.20
2019-03-31T10:23:34.980Z,14.30
2019-03-31T10:26:02.468Z,16.00
2019-03-31T10:28:30.076Z,16.90
2019-03-31T10:30:57.382Z,17.83
2019-03-31T10:33:25.214Z,16.30
2019-03-31T10:35:52.638Z,17.90
2019-03-31T10:38:20.095Z,20.13
2019-03-31T10:40:47.404Z,14.90
2019-03-31T10:43:14.732Z,13.87
2019-03-31T10:45:42.117Z,14.73
2019-03-31T10:48:20.342Z,13.83
2019-03-31T10:50:38.622Z,16.00
2019-03-31T10:53:05.937Z,15.30
2019-03-31T10:55:33.250Z,13.60
2019-03-31T10:58:00.980Z,11.67
2019-03-31T11:00:32.935Z,13.20
2019-03-31T11:03:00.375Z,13.67
2019-03-31T11:05:28.249Z,12.63
2019-03-31T11:07:55.587Z,11.83
2019-03-31T11:10:23.156Z,12.03
2019-03-31T11:12:51.048Z,12.57
2019-03-31T11:15:18.932Z,11.27
2019-03-31T11:17:46.301Z,23.57
2019-03-31T11:20:13.688Z,9.97
2019-03-31T11:22:54.782Z,11.77
2019-03-31T11:25:26.140Z,12.00
2019-03-31T11:27:51.333Z,11.13
2019-03-31T11:30:19.245Z,12.00
2019-03-31T11:32:46.604Z,9.70
2019-03-31T11:35:13.908Z,11.13
2019-03-31T11:37:42.368Z,9.50
2019-03-31T11:40:09.945Z,10.30
2019-03-31T11:42:37.257Z,11.83
2019-03-31T11:45:06.987Z,11.43
2019-03-31T11:47:34.466Z,8.60
2019-03-31T11:50:01.869Z,8.70
2019-03-31T11:52:29.293Z,10.40
2019-03-31T11:54:56.600Z,11.70
2019-03-31T11:57:24.058Z,10.67
2019-03-31T11:59:52.149Z,12.40
2019-03-31T12:02:27.134Z,7.80
2019-03-31T12:04:49.084Z,9.57
2019-03-31T12:07:27.259Z,8.87
2019-03-31T12:09:45.589Z,7.90
2019-03-31T12:12:13.123Z,7.97
2019-03-31T12:14:40.426Z,9.67
2019-03-31T12:17:08.212Z,9.93
2019-03-31T12:19:35.535Z,8.33
2019-03-31T12:22:02.858Z,12.67
2019-03-31T12:24:30.781Z,13.30
2019-03-31T12:26:58.461Z,12.77
2019-03-31T12:29:25.784Z,11.70
2019-03-31T12:31:53.092Z,10.53
2019-03-31T12:34:20.602Z,18.80
2019-03-31T12:36:47.919Z,10.70
2019-03-31T12:39:15.928Z,9.73
2019-03-31T12:41:43.323Z,10.17
2019-03-31T12:44:11.448Z,8.37
2019-03-31T12:46:38.770Z,10.97
2019-03-31T12:49:06.380Z,10.83
2019-03-31T12:51:33.690Z,8.00
2019-03-31T12:54:01.294Z,8.17
2019-03-31T12:56:28.617Z,8.47
2019-03-31T12:58:56.187Z,8.00
2019-03-31T13:01:23.497Z,14.27
2019-03-31T13:03:50.853Z,9.10
2019-03-31T13:06:18.571Z,10.90
2019-03-31T13:10:13.024Z,8.03
2019-03-31T13:12:42.762Z,10.15
2019-03-31T13:15:12.657Z,8.90
2019-03-31T13:17:42.364Z,9.40
2019-03-31T13:20:12.553Z,8.83
2019-03-31T13:22:45.655Z,8.97
2019-03-31T13:25:14.511Z,9.07
2019-03-31T13:27:44.076Z,7.27
2019-03-31T13:30:14.440Z,10.57
2019-03-31T13:32:44.101Z,9.40
2019-03-31T13:35:14.368Z,7.47
2019-03-31T13:37:44.759Z,8.27
2019-03-31T13:40:15.042Z,9.33
2019-03-31T13:42:44.674Z,7.53
2019-03-31T13:45:14.914Z,7.93
2019-03-31T13:47:44.835Z,9.03
2019-03-31T13:50:15.410Z,7.80
2019-03-31T13:52:44.970Z,7.57
2019-03-31T13:55:15.616Z,7.57
2019-03-31T13:57:47.073Z,9.07
2019-03-31T14:00:35.932Z,8.03
2019-03-31T14:03:06.008Z,9.33
2019-03-31T14:05:35.925Z,8.97
2019-03-31T14:08:06.191Z,7.83
2019-03-31T14:10:36.004Z,9.70
2019-03-31T14:13:06.118Z,9.00
2019-03-31T14:15:35.773Z,8.47
2019-03-31T14:18:05.904Z,9.13
2019-03-31T14:20:35.477Z,8.13
2019-03-31T14:23:05.103Z,7.45
2019-03-31T14:25:34.826Z,7.37
2019-03-31T14:28:04.731Z,6.60
2019-03-31T14:30:34.647Z,6.30
2019-03-31T14:33:04.217Z,6.92
2019-03-31T14:35:33.839Z,14.63
2019-03-31T14:38:03.504Z,6.25
2019-03-31T14:40:33.049Z,5.27
2019-03-31T14:43:02.768Z,5.50
2019-03-31T14:45:35.236Z,8.00
2019-03-31T14:48:05.370Z,7.47
2019-03-31T14:50:37.634Z,5.10
2019-03-31T14:53:07.967Z,6.58
2019-03-31T14:55:38.359Z,7.67
2019-03-31T14:58:08.666Z,6.33
2019-03-31T15:00:38.514Z,5.50
2019-03-31T15:03:08.435Z,24.50
2019-03-31T15:05:38.140Z,11.73
2019-03-31T15:08:07.727Z,6.15
2019-03-31T15:10:38.322Z,5.73
2019-03-31T15:13:07.881Z,5.55
2019-03-31T15:15:37.449Z,5.67
2019-03-31T15:18:07.328Z,5.45
2019-03-31T15:20:37.206Z,5.63
2019-03-31T15:23:06.772Z,4.50
2019-03-31T15:25:36.405Z,4.57
2019-03-31T15:28:06.164Z,5.35
2019-03-31T15:30:35.831Z,4.27
2019-03-31T15:33:05.769Z,3.97
2019-03-31T15:35:37.726Z,5.67
2019-03-31T15:38:06.658Z,4.47
2019-03-31T15:40:36.375Z,18.97
2019-03-31T15:43:05.933Z,8.47
2019-03-31T15:45:35.781Z,6.20
2019-03-31T15:48:05.843Z,5.87
2019-03-31T15:50:36.168Z,7.53
2019-03-31T15:53:05.735Z,8.58
2019-03-31T15:55:35.359Z,4.50
2019-03-31T15:58:05.593Z,6.50
2019-03-31T16:00:35.261Z,6.07
2019-03-31T16:03:05.123Z,5.85
2019-03-31T16:05:35.658Z,6.17
2019-03-31T16:08:05.221Z,6.35
2019-03-31T16:10:35.065Z,5.90
2019-03-31T16:13:05.116Z,6.55
2019-03-31T16:15:34.866Z,7.47
2019-03-31T16:18:05.633Z,10.32
2019-03-31T16:20:35.207Z,7.67
2019-03-31T16:23:04.961Z,7.03
2019-03-31T16:25:39.051Z,4.40
2019-03-31T16:28:08.622Z,5.90
2019-03-31T16:30:38.250Z,8.35
2019-03-31T16:33:08.792Z,4.60
2019-03-31T16:35:38.355Z,8.13
2019-03-31T16:38:07.930Z,7.15
2019-03-31T16:40:37.919Z,6.30
2019-03-31T16:43:08.234Z,4.92
2019-03-31T16:45:37.852Z,5.13
2019-03-31T16:48:07.639Z,4.55
2019-03-31T16:50:37.223Z,6.00
2019-03-31T16:53:06.789Z,6.45
2019-03-31T16:55:36.592Z,4.40
2019-03-31T16:58:09.334Z,8.00
2019-03-31T17:00:38.245Z,6.70
2019-03-31T17:03:07.819Z,5.20
2019-03-31T17:05:37.500Z,4.90
2019-03-31T17:08:07.060Z,4.25
2019-03-31T17:10:36.706Z,4.20
2019-03-31T17:13:06.575Z,9.50
2019-03-31T17:15:36.150Z,5.23
2019-03-31T17:18:05.701Z,5.78
2019-03-31T17:20:35.924Z,7.90
2019-03-31T17:23:06.394Z,6.05
2019-03-31T17:25:36.218Z,7.67
2019-03-31T17:28:05.785Z,6.35
2019-03-31T17:30:35.520Z,6.10
2019-03-31T17:33:05.476Z,4.30
2019-03-31T17:35:35.039Z,18.67
2019-03-31T17:38:05.126Z,6.57
2019-03-31T17:40:35.185Z,9.80
2019-03-31T17:43:05.773Z,4.53
2019-03-31T17:45:35.320Z,8.60
2019-03-31T17:48:04.889Z,11.35
2019-03-31T17:50:34.672Z,6.13
2019-03-31T17:53:04.935Z,6.90
2019-03-31T17:55:34.508Z,7.33
2019-03-31T17:58:04.412Z,6.65
2019-03-31T18:00:34.740Z,5.40
2019-03-31T18:03:04.323Z,9.93
2019-03-31T18:05:33.878Z,8.37
2019-03-31T18:08:03.845Z,8.35
2019-03-31T18:10:33.676Z,6.53
2019-03-31T18:13:03.676Z,6.93
2019-03-31T18:15:33.385Z,5.23
2019-03-31T18:18:02.955Z,6.30
2019-03-31T18:20:33.220Z,6.60
2019-03-31T18:23:02.914Z,3.80
2019-03-31T18:25:32.887Z,7.13
2019-03-31T18:28:02.526Z,11.80
2019-03-31T18:30:32.451Z,14.47
2019-03-31T18:33:02.024Z,8.80
2019-03-31T18:35:31.598Z,7.20
2019-03-31T18:38:01.375Z,12.03
2019-03-31T18:40:35.108Z,9.50
2019-03-31T18:43:02.603Z,8.30
2019-03-31T18:45:32.289Z,6.10
2019-03-31T18:48:02.300Z,5.55
2019-03-31T18:50:31.852Z,6.07
2019-03-31T18:53:01.900Z,6.33
2019-03-31T18:55:33.208Z,7.43
2019-03-31T18:58:13.170Z,4.85
2019-03-31T19:01:02.964Z,10.00
2019-03-31T19:03:38.201Z,6.30
2019-03-31T19:06:07.703Z,6.28
2019-03-31T19:08:39.698Z,8.33
2019-03-31T19:11:16.907Z,6.85
2019-03-31T19:14:04.706Z,5.87
2019-03-31T19:16:41.543Z,6.23
2019-03-31T19:19:27.794Z,8.23
2019-03-31T19:21:59.184Z,10.10
2019-03-31T19:24:28.511Z,6.47
2019-03-31T19:26:59.701Z,4.87
2019-03-31T19:29:31.103Z,6.40
2019-03-31T19:32:05.432Z,4.97
2019-03-31T19:34:46.057Z,6.77
2019-03-31T19:37:17.508Z,10.17
2019-03-31T19:40:07.124Z,6.60
2019-03-31T19:42:38.309Z,4.97
2019-03-31T19:45:25.998Z,10.40
2019-03-31T19:48:03.419Z,3.83
2019-03-31T19:50:50.846Z,8.00
2019-03-31T19:53:29.209Z,9.97
2019-03-31T19:56:16.587Z,4.97
2019-03-31T19:58:52.456Z,4.83
2019-03-31T20:01:23.646Z,6.20
2019-03-31T20:04:02.257Z,5.13
2019-03-31T20:06:31.823Z,6.73
2019-03-31T20:09:08.977Z,5.28
2019-03-31T20:11:40.316Z,7.87
2019-03-31T20:14:11.799Z,7.85
2019-03-31T20:16:42.985Z,4.07
2019-03-31T20:19:16.573Z,5.28
2019-03-31T20:21:53.567Z,5.17
2019-03-31T20:24:40.803Z,5.30
2019-03-31T20:27:18.026Z,5.87
2019-03-31T20:29:49.219Z,7.63
2019-03-31T20:32:20.492Z,6.00
2019-03-31T20:34:54.346Z,5.60
2019-03-31T20:37:43.684Z,6.67
2019-03-31T20:40:14.880Z,5.73
2019-03-31T20:42:51.906Z,5.60
2019-03-31T20:45:21.540Z,13.37
2019-03-31T20:47:51.161Z,11.33
2019-03-31T20:50:20.724Z,6.13
2019-03-31T20:52:50.529Z,5.63
2019-03-31T20:55:20.242Z,4.50
2019-03-31T20:57:49.814Z,9.80
2019-03-31T21:00:19.707Z,5.20
2019-03-31T21:02:49.257Z,9.03
2019-03-31T21:05:19.283Z,6.77
2019-03-31T21:07:48.842Z,6.33
2019-03-31T21:10:18.406Z,8.20
2019-03-31T21:12:48.219Z,6.83
2019-03-31T21:15:17.793Z,5.28
2019-03-31T21:17:47.354Z,7.80
2019-03-31T21:20:16.974Z,4.33
2019-03-31T21:22:46.526Z,5.37
2019-03-31T21:25:16.184Z,6.17
2019-03-31T21:27:45.738Z,4.40
2019-03-31T21:30:15.791Z,3.97
2019-03-31T21:32:46.089Z,4.87
2019-03-31T21:35:15.707Z,7.23
2019-03-31T21:37:45.293Z,6.87
2019-03-31T21:40:15.685Z,5.97
2019-03-31T21:42:45.358Z,7.63
2019-03-31T21:45:15.530Z,5.43
2019-03-31T21:47:45.152Z,8.67
2019-03-31T21:50:14.843Z,7.63
2019-03-31T21:52:44.904Z,9.60
2019-03-31T21:55:14.463Z,6.00
2019-03-31T21:57:44.048Z,7.63
2019-03-31T22:00:14.600Z,8.00
2019-03-31T22:02:44.384Z,8.43
2019-03-31T22:05:14.345Z,3.97
2019-03-31T22:07:44.068Z,7.10
2019-03-31T22:10:13.995Z,6.03
2019-03-31T22:12:43.866Z,9.80
2019-03-31T22:15:13.601Z,10.17
2019-03-31T22:17:43.296Z,6.07
2019-03-31T22:20:12.982Z,7.35
2019-03-31T22:22:42.548Z,5.43
2019-03-31T22:25:13.697Z,7.92
2019-03-31T22:27:43.354Z,5.10
2019-03-31T22:30:12.957Z,6.33
2019-03-31T22:32:42.778Z,5.73
2019-03-31T22:35:12.682Z,4.90
2019-03-31T22:37:42.229Z,5.67
2019-03-31T22:40:12.311Z,5.90
2019-03-31T22:42:42.136Z,7.70
2019-03-31T22:45:12.093Z,4.10
2019-03-31T22:47:41.640Z,4.80
2019-03-31T22:50:11.597Z,8.20
2019-03-31T22:52:41.289Z,4.47
2019-03-31T22:55:10.982Z,4.07
2019-03-31T22:57:41.293Z,3.57
2019-03-31T23:00:14.461Z,5.80
2019-03-31T23:02:44.389Z,4.97
2019-03-31T23:05:13.945Z,6.40
2019-03-31T23:07:43.659Z,5.77
2019-03-31T23:10:13.521Z,7.20
2019-03-31T23:12:43.072Z,7.20
2019-03-31T23:15:12.630Z,3.67
2019-03-31T23:17:42.454Z,6.47
2019-03-31T23:20:12.328Z,6.85
2019-03-31T23:22:42.250Z,5.30
2019-03-31T23:25:11.963Z,6.65
2019-03-31T23:27:41.517Z,5.20
2019-03-31T23:30:12.342Z,3.95
2019-03-31T23:32:42.022Z,8.37
2019-03-31T23:35:11.868Z,4.15
2019-03-31T23:37:41.966Z,7.30
2019-03-31T23:40:12.069Z,5.25
2019-03-31T23:42:42.386Z,3.93
2019-03-31T23:45:12.231Z,3.17
2019-03-31T23:47:42.624Z,8.30
2019-03-31T23:50:12.933Z,5.23
2019-03-31T23:52:42.480Z,8.57
2019-03-31T23:55:12.177Z,6.10
2019-03-31T23:57:44.934Z,5.77
